Time;durP1;ratioP1;P1;durP2;ratioP2;P2;SDS_P1;SDS_P2;PMS_P1;PMS_P2;Temp;Humidity;BMP_temperature;BMP_pressure;BME280_temperature;BME280_humidity;BME280_pressure;Samples;Min_cycle;Max_cycle;Signal;HPM_P1;HPM_P2
2022/08/24 00:01:14;;;;;;;85.35;43.92;;;19.50;99.90;;;;;;5074688;28;20045;-73
2022/08/24 00:03:41;;;;;;;78.75;43.10;;;19.50;99.90;;;;;;5039616;28;20354;-73
2022/08/24 00:06:10;;;;;;;73.15;42.97;;;19.50;99.90;;;;;;5073116;28;20420;-72
2022/08/24 00:08:37;;;;;;;79.05;44.60;;;19.40;99.90;;;;;;5074034;28;20134;-78
2022/08/24 00:11:04;;;;;;;74.93;43.13;;;19.40;99.90;;;;;;5073827;28;20131;-72
2022/08/24 00:13:30;;;;;;;79.20;44.15;;;19.40;99.90;;;;;;5056713;28;20056;-73
2022/08/24 00:15:56;;;;;;;83.50;46.17;;;19.30;99.90;;;;;;5073818;28;20097;-74
2022/08/24 00:18:22;;;;;;;75.05;44.03;;;19.30;99.90;;;;;;5074218;28;20044;-74
2022/08/24 00:20:47;;;;;;;78.47;44.92;;;19.20;99.90;;;;;;5073197;28;20045;-74
2022/08/24 00:23:14;;;;;;;78.73;42.50;;;19.20;99.90;;;;;;5073878;28;20055;-75
2022/08/24 00:25:40;;;;;;;83.57;45.63;;;19.20;99.90;;;;;;5056099;28;20054;-75
2022/08/24 00:28:06;;;;;;;80.43;45.78;;;19.10;99.90;;;;;;5074057;28;20045;-74
2022/08/24 00:30:33;;;;;;;86.80;46.97;;;19.10;99.90;;;;;;5056332;28;20243;-73
2022/08/24 00:32:59;;;;;;;;;;;19.10;99.90;;;;;;5073482;28;20152;-74
2022/08/24 00:35:25;;;;;;;87.00;47.45;;;19.10;99.90;;;;;;5076840;28;19951;-74
2022/08/24 00:37:52;;;;;;;90.00;48.85;;;19.00;99.90;;;;;;5094283;28;20472;-73
2022/08/24 00:40:25;;;;;;;85.18;47.35;;;19.00;99.90;;;;;;5097393;28;20073;-73
2022/08/24 00:42:54;;;;;;;87.45;48.70;;;18.90;99.90;;;;;;5063060;28;20480;-76
2022/08/24 00:45:21;;;;;;;90.25;49.00;;;18.90;99.90;;;;;;5098188;28;20404;-73
2022/08/24 00:47:58;;;;;;;97.63;52.83;;;18.90;99.90;;;;;;5078986;28;20101;-74
2022/08/24 00:50:46;;;;;;;103.68;52.92;;;18.80;99.90;;;;;;5096859;28;20149;-73
2022/08/24 00:53:31;;;;;;;94.05;51.15;;;18.80;99.90;;;;;;5096409;28;20044;-72
2022/08/24 00:56:00;;;;;;;91.88;50.03;;;18.80;99.90;;;;;;5063875;28;20095;-73
2022/08/24 00:58:35;;;;;;;95.95;51.05;;;18.70;99.90;;;;;;5062984;28;20128;-73
2022/08/24 01:01:05;;;;;;;97.43;51.33;;;18.60;99.90;;;;;;5079958;28;20423;-74
2022/08/24 01:03:33;;;;;;;91.07;50.15;;;18.60;99.90;;;;;;5094896;28;20044;-73
2022/08/24 01:05:59;;;;;;;92.85;49.47;;;18.50;99.90;;;;;;5076988;28;20056;-72
2022/08/24 01:08:25;;;;;;;93.57;51.80;;;18.50;99.90;;;;;;5076470;28;20051;-72
2022/08/24 01:10:55;;;;;;;106.60;51.83;;;18.40;99.90;;;;;;5094416;28;20066;-73
2022/08/24 01:13:23;;;;;;;86.68;48.47;;;18.40;99.90;;;;;;5076507;28;20482;-73
2022/08/24 01:15:52;;;;;;;93.28;51.58;;;18.40;99.90;;;;;;5098639;28;20098;-72
2022/08/24 01:21:15;;;;;;;88.78;49.78;;;18.20;99.90;;;;;;5098150;28;20062;-75
2022/08/24 01:23:50;;;;;;;85.95;48.60;;;18.20;99.90;;;;;;5096749;28;20487;-78
2022/08/24 01:26:32;;;;;;;87.32;47.97;;;18.20;99.90;;;;;;5078562;28;20082;-72
2022/08/24 01:29:03;;;;;;;87.05;47.58;;;18.10;99.90;;;;;;5078923;28;20093;-75
2022/08/24 01:31:29;;;;;;;99.47;53.35;;;18.10;99.90;;;;;;5079594;28;20135;-74
2022/08/24 01:33:55;;;;;;;95.27;49.30;;;18.00;99.90;;;;;;5078664;28;20079;-74
2022/08/24 01:36:26;;;;;;;91.00;47.88;;;18.00;99.90;;;;;;5078952;28;20058;-73
2022/08/24 01:38:54;;;;;;;93.72;50.30;;;17.90;99.90;;;;;;5077682;28;20445;-74
2022/08/24 01:41:20;;;;;;;95.18;49.70;;;17.90;99.90;;;;;;5078434;28;20387;-73
2022/08/24 01:43:45;;;;;;;103.63;53.03;;;17.90;99.90;;;;;;5076822;28;20052;-74
2022/08/24 01:46:11;;;;;;;95.27;50.43;;;17.90;99.90;;;;;;5094879;28;20040;-73
2022/08/24 01:48:37;;;;;;;95.43;49.20;;;17.80;99.90;;;;;;5094931;28;20036;-74
2022/08/24 01:51:03;;;;;;;89.47;49.23;;;17.80;99.90;;;;;;5076789;28;20040;-73
2022/08/24 01:53:29;;;;;;;91.77;49.40;;;17.80;99.90;;;;;;5060802;28;20058;-73
2022/08/24 01:55:55;;;;;;;89.73;49.30;;;17.80;99.90;;;;;;5063608;28;20070;-73
2022/08/24 01:58:20;;;;;;;93.93;49.77;;;17.80;99.90;;;;;;5080551;28;20043;-72
2022/08/24 02:00:46;;;;;;;89.80;47.20;;;17.80;99.90;;;;;;5099198;28;20048;-78
2022/08/24 02:03:12;;;;;;;94.63;47.63;;;17.80;99.90;;;;;;5099639;28;20070;-75
2022/08/24 02:05:38;;;;;;;83.17;46.60;;;17.80;99.90;;;;;;5081196;28;20131;-74
2022/08/24 02:08:04;;;;;;;85.67;47.43;;;17.80;99.90;;;;;;5098113;28;20040;-74
2022/08/24 02:10:30;;;;;;;90.67;47.17;;;17.80;99.90;;;;;;5082269;28;20297;-73
2022/08/24 02:12:57;;;;;;;89.75;47.85;;;17.80;99.90;;;;;;5100491;28;20040;-73
2022/08/24 02:15:29;;;;;;;86.40;47.90;;;17.80;99.90;;;;;;5100367;28;20040;-75
2022/08/24 02:17:56;;;;;;;95.15;50.72;;;17.80;99.90;;;;;;5099174;28;20043;-72
2022/08/24 02:20:22;;;;;;;86.50;49.40;;;17.80;99.90;;;;;;5082629;28;20148;-72
2022/08/24 02:22:50;;;;;;;85.03;48.03;;;17.80;99.90;;;;;;5082384;28;20044;-78
2022/08/24 02:25:16;;;;;;;91.50;49.13;;;17.70;99.90;;;;;;5099524;28;20050;-72
2022/08/24 02:27:42;;;;;;;84.57;47.22;;;17.70;99.90;;;;;;5081845;28;20047;-72
2022/08/24 02:30:08;;;;;;;91.27;50.17;;;17.70;99.90;;;;;;5064039;28;20046;-79
2022/08/24 02:32:34;;;;;;;82.03;46.72;;;17.60;99.90;;;;;;5080614;28;20040;-73
2022/08/24 02:34:59;;;;;;;91.70;49.17;;;17.60;99.90;;;;;;5079621;28;20036;-73
2022/08/24 02:37:25;;;;;;;93.17;50.10;;;17.60;99.90;;;;;;5097628;28;20052;-75
2022/08/24 02:39:52;;;;;;;90.27;49.83;;;17.60;99.90;;;;;;5098641;28;20389;-74
2022/08/24 02:42:18;;;;;;;89.25;48.72;;;17.60;99.90;;;;;;5098335;28;20044;-73
2022/08/24 02:44:43;;;;;;;91.83;49.67;;;17.50;99.90;;;;;;5081154;28;20380;-73
2022/08/24 02:47:10;;;;;;;87.07;48.70;;;17.50;99.90;;;;;;5080232;28;20051;-72
2022/08/24 02:49:36;;;;;;;98.67;50.83;;;17.50;99.90;;;;;;5064920;28;20056;-73
2022/08/24 02:52:03;;;;;;;98.85;51.05;;;17.40;99.90;;;;;;5099051;28;20286;-73
2022/08/24 02:54:28;;;;;;;89.22;47.47;;;17.40;99.90;;;;;;5099245;28;20051;-73
2022/08/24 02:56:54;;;;;;;85.07;46.93;;;17.40;99.90;;;;;;5098308;28;20112;-72
2022/08/24 02:59:21;;;;;;;83.73;47.67;;;17.40;99.90;;;;;;5062521;28;20388;-72
2022/08/24 03:01:48;;;;;;;79.90;46.08;;;17.40;99.90;;;;;;5079387;28;20050;-73
2022/08/24 03:04:14;;;;;;;85.45;46.90;;;17.40;99.90;;;;;;5063763;28;20058;-73
2022/08/24 03:06:41;;;;;;;81.90;45.93;;;17.40;99.90;;;;;;5096543;28;20048;-73
2022/08/24 03:09:07;;;;;;;75.13;43.50;;;17.40;99.90;;;;;;5078015;28;20391;-73
2022/08/24 03:11:33;;;;;;;81.70;45.50;;;17.40;99.90;;;;;;5078166;28;20048;-79
2022/08/24 03:13:59;;;;;;;78.10;44.80;;;17.40;99.90;;;;;;5096483;28;20104;-74
2022/08/24 03:16:26;;;;;;;75.27;44.03;;;17.40;99.90;;;;;;5077975;28;20436;-72
2022/08/24 03:18:52;;;;;;;77.57;43.63;;;17.40;99.90;;;;;;5095902;28;20040;-79
2022/08/24 03:21:18;;;;;;;81.87;46.20;;;17.30;99.90;;;;;;5077752;28;20040;-73
2022/08/24 03:23:44;;;;;;;81.57;46.67;;;17.30;99.90;;;;;;5095076;28;20055;-72
2022/08/24 03:26:11;;;;;;;79.47;46.17;;;17.30;99.90;;;;;;5094871;28;20040;-73
2022/08/24 03:28:36;;;;;;;81.97;44.70;;;17.30;99.90;;;;;;5077722;28;20036;-73
2022/08/24 03:31:02;;;;;;;89.30;47.58;;;17.30;99.90;;;;;;5096339;28;20384;-72
2022/08/24 03:33:29;;;;;;;88.40;49.50;;;17.20;99.90;;;;;;5096439;28;20044;-73
2022/08/24 03:35:54;;;;;;;91.68;48.78;;;17.20;99.90;;;;;;5077802;28;20056;-78
2022/08/24 03:38:21;;;;;;;86.22;48.58;;;17.20;99.90;;;;;;5095455;28;20096;-73
2022/08/24 03:40:47;;;;;;;87.47;48.35;;;17.10;99.90;;;;;;5095975;28;20425;-74
2022/08/24 03:43:44;;;;;;;88.07;47.47;;;17.10;99.90;;;;;;5077751;28;20044;-74
2022/08/24 03:46:01;;;;;;;90.90;49.15;;;17.10;99.90;;;;;;5076645;28;20141;-73
2022/08/24 03:48:29;;;;;;;94.82;50.20;;;17.10;99.90;;;;;;5094948;28;20048;-72
2022/08/24 03:50:56;;;;;;;98.53;51.22;;;17.00;99.90;;;;;;5094632;28;20047;-73
2022/08/24 03:53:21;;;;;;;97.53;52.50;;;17.00;99.90;;;;;;5076654;28;20549;-72
2022/08/24 03:55:47;;;;;;;97.15;50.20;;;16.90;99.90;;;;;;5095025;28;20059;-72
2022/08/24 03:58:13;;;;;;;96.17;50.80;;;16.90;99.90;;;;;;5076583;28;20040;-75
2022/08/24 04:00:41;;;;;;;93.73;49.33;;;16.80;99.90;;;;;;5060180;28;20149;-72
2022/08/24 04:03:08;;;;;;;85.47;46.78;;;16.80;99.90;;;;;;5095189;28;20044;-74
2022/08/24 04:05:35;;;;;;;76.68;43.35;;;16.70;99.90;;;;;;5094560;28;20052;-72
2022/08/24 04:08:02;;;;;;;73.03;42.28;;;16.70;99.90;;;;;;5094931;28;20051;-73
2022/08/24 04:10:28;;;;;;;80.22;44.40;;;16.70;99.90;;;;;;5076741;28;20469;-73
2022/08/24 04:12:54;;;;;;;89.23;48.97;;;16.70;99.90;;;;;;5059833;28;20073;-72
2022/08/24 04:15:19;;;;;;;100.50;51.80;;;16.70;99.90;;;;;;5094165;28;20040;-74
2022/08/24 04:17:45;;;;;;;103.43;53.13;;;16.70;99.90;;;;;;5075363;28;20060;-72
2022/08/24 04:20:11;;;;;;;101.78;51.10;;;16.70;99.90;;;;;;5093915;28;20047;-73
2022/08/24 04:22:37;;;;;;;91.45;49.15;;;16.70;99.90;;;;;;5059806;28;20052;-72
2022/08/24 04:25:06;;;;;;;93.57;50.47;;;16.70;99.90;;;;;;5094118;28;20126;-72
2022/08/24 04:27:32;;;;;;;96.70;49.78;;;16.70;99.90;;;;;;5094811;28;20098;-72
2022/08/24 04:29:57;;;;;;;87.93;46.23;;;16.70;99.90;;;;;;5095017;28;20040;-72
2022/08/24 04:32:23;;;;;;;97.78;49.65;;;16.70;99.90;;;;;;5093091;28;20043;-73
2022/08/24 04:34:49;;;;;;;92.80;49.15;;;16.70;99.90;;;;;;5076058;28;20136;-73
2022/08/24 04:37:16;;;;;;;99.00;51.25;;;16.70;99.90;;;;;;5094252;28;20052;-73
2022/08/24 04:39:43;;;;;;;88.18;47.60;;;16.70;99.90;;;;;;5095084;28;20051;-74
2022/08/24 04:42:09;;;;;;;91.13;47.70;;;16.70;99.90;;;;;;5059595;28;20056;-71
2022/08/24 04:44:35;;;;;;;95.50;48.73;;;16.70;99.90;;;;;;5093981;28;20076;-73
2022/08/24 04:47:01;;;;;;;83.90;45.60;;;16.70;99.90;;;;;;5093207;28;20515;-72
2022/08/24 04:49:27;;;;;;;86.45;45.75;;;16.70;99.90;;;;;;5075463;28;20083;-72
2022/08/24 04:51:53;;;;;;;81.07;45.50;;;16.70;99.90;;;;;;5075391;28;20083;-75
2022/08/24 04:54:19;;;;;;;82.37;45.90;;;16.70;99.90;;;;;;5093329;28;20534;-73
2022/08/24 04:56:44;;;;;;;78.00;43.77;;;16.70;99.90;;;;;;5075447;28;20538;-71
2022/08/24 04:59:10;;;;;;;87.13;45.47;;;16.80;99.90;;;;;;5075720;28;20118;-72
2022/08/24 05:01:36;;;;;;;78.20;43.80;;;16.90;99.90;;;;;;5075594;28;20044;-74
2022/08/24 05:04:03;;;;;;;81.65;45.65;;;16.90;99.90;;;;;;5074999;28;20040;-72
2022/08/24 05:06:34;;;;;;;82.75;45.55;;;17.00;99.90;;;;;;5075010;28;20052;-72
2022/08/24 05:09:01;;;;;;;80.18;44.13;;;17.00;99.90;;;;;;5075079;28;20536;-74
2022/08/24 05:11:27;;;;;;;83.70;45.85;;;17.10;99.90;;;;;;5075379;28;20079;-72
2022/08/24 05:13:54;;;;;;;80.70;46.40;;;17.10;99.90;;;;;;5075252;28;20079;-73
2022/08/24 05:16:22;;;;;;;77.90;44.42;;;17.20;99.90;;;;;;5074817;28;20044;-73
2022/08/24 05:18:48;;;;;;;79.78;45.10;;;17.20;99.90;;;;;;5058011;28;20535;-72
2022/08/24 05:21:17;;;;;;;79.33;44.53;;;17.30;99.90;;;;;;5092821;28;20075;-73
2022/08/24 05:23:43;;;;;;;92.45;50.55;;;17.30;99.90;;;;;;5058179;28;20378;-71
2022/08/24 05:26:15;;;;;;;71.00;41.93;;;17.40;99.90;;;;;;5092754;28;20508;-76
2022/08/24 05:28:42;;;;;;;71.43;42.28;;;17.50;99.90;;;;;;5093099;28;20281;-71
2022/08/24 05:31:13;;;;;;;80.43;45.55;;;17.50;99.90;;;;;;5078769;28;20052;-80
2022/08/24 05:33:40;;;;;;;78.38;45.03;;;17.60;99.90;;;;;;5097182;28;20086;-71
2022/08/24 05:36:17;;;;;;;83.90;47.25;;;17.60;99.90;;;;;;5097214;28;20059;-71
2022/08/24 05:38:43;;;;;;;89.65;49.33;;;17.70;99.90;;;;;;5096340;28;20047;-72
2022/08/24 05:41:09;;;;;;;101.72;53.80;;;17.70;99.90;;;;;;5096674;28;20126;-78
2022/08/24 05:43:35;;;;;;;102.70;52.60;;;17.80;99.90;;;;;;5062298;28;20087;-71
2022/08/24 05:46:00;;;;;;;105.07;54.97;;;17.80;99.90;;;;;;5078616;28;20052;-72
2022/08/24 05:48:26;;;;;;;102.57;53.90;;;17.90;99.90;;;;;;5078796;28;20058;-71
2022/08/24 05:50:56;;;;;;;100.37;55.07;;;18.00;99.90;;;;;;5062015;28;20054;-72
2022/08/24 05:53:22;;;;;;;103.53;56.08;;;18.00;99.90;;;;;;5097091;28;20128;-72
2022/08/24 05:55:49;;;;;;;95.47;51.92;;;18.10;99.90;;;;;;5096541;28;20101;-72
2022/08/24 05:58:15;;;;;;;79.13;45.25;;;18.10;99.90;;;;;;5096082;28;20040;-74
2022/08/24 06:00:40;;;;;;;82.00;47.70;;;18.20;99.90;;;;;;5061842;28;20047;-72
2022/08/24 06:03:07;;;;;;;79.60;46.57;;;18.20;99.90;;;;;;5078431;28;20044;-73
2022/08/24 06:05:33;;;;;;;89.78;49.35;;;18.20;99.90;;;;;;5097128;28;20096;-72
2022/08/24 06:07:59;;;;;;;80.93;47.23;;;18.30;99.90;;;;;;5079208;28;20478;-74
2022/08/24 06:10:25;;;;;;;80.72;45.70;;;18.30;99.90;;;;;;5078500;28;20048;-72
2022/08/24 06:12:51;;;;;;;77.60;46.63;;;18.40;99.90;;;;;;5078420;28;20395;-73
2022/08/24 06:15:17;;;;;;;96.00;51.57;;;18.50;99.90;;;;;;5078089;28;20051;-73
2022/08/24 06:17:43;;;;;;;94.57;51.43;;;18.50;99.90;;;;;;5078194;28;20056;-72
2022/08/24 06:20:09;;;;;;;96.57;54.25;;;18.60;99.90;;;;;;5096403;28;20134;-71
2022/08/24 06:22:35;;;;;;;101.25;54.47;;;18.70;99.90;;;;;;5061957;28;20048;-72
2022/08/24 06:27:45;;;;;;;103.75;57.63;;;18.80;99.90;;;;;;5096548;28;20052;-72
2022/08/24 06:30:12;;;;;;;105.87;59.57;;;18.90;99.90;;;;;;5061542;28;20044;-83
2022/08/24 06:32:38;;;;;;;109.10;59.20;;;18.90;99.90;;;;;;5096249;28;20134;-75
2022/08/24 06:35:05;;;;;;;111.80;60.20;;;19.00;99.90;;;;;;5095868;28;20047;-71
2022/08/24 06:37:30;;;;;;;108.05;57.55;;;19.00;99.90;;;;;;5043804;28;20054;-71
2022/08/24 06:39:58;;;;;;;103.07;57.67;;;19.10;99.90;;;;;;5061126;28;20052;-72
2022/08/24 06:42:24;;;;;;;109.28;58.53;;;19.20;99.90;;;;;;5095834;28;20048;-75
2022/08/24 06:44:51;;;;;;;101.70;59.83;;;19.20;99.90;;;;;;5095862;28;20134;-71
2022/08/24 06:47:17;;;;;;;106.15;59.67;;;19.30;99.90;;;;;;5060754;28;20138;-73
2022/08/24 06:49:43;;;;;;;109.25;63.03;;;19.40;99.90;;;;;;5095522;28;20040;-71
2022/08/24 06:52:10;;;;;;;105.53;59.80;;;19.40;99.90;;;;;;5077255;28;20047;-72
2022/08/24 06:54:37;;;;;;;105.43;61.95;;;19.50;99.90;;;;;;5078037;28;20055;-72
2022/08/24 06:57:03;;;;;;;112.57;67.28;;;19.60;99.90;;;;;;5095315;28;20153;-72
2022/08/24 06:59:30;;;;;;;113.53;69.40;;;19.70;99.90;;;;;;5077277;28;20052;-72
2022/08/24 07:01:55;;;;;;;131.35;74.85;;;19.80;99.90;;;;;;5061364;28;20127;-73
2022/08/24 07:04:23;;;;;;;133.40;78.70;;;19.90;99.90;;;;;;5095081;28;20593;-74
2022/08/24 07:06:49;;;;;;;132.00;77.40;;;20.00;99.90;;;;;;5095708;28;20044;-72
2022/08/24 07:09:15;;;;;;;135.43;81.00;;;20.10;99.90;;;;;;5095092;28;20040;-70
2022/08/24 07:11:42;;;;;;;125.50;74.90;;;20.10;99.90;;;;;;5077204;28;20040;-73
2022/08/24 07:14:07;;;;;;;127.10;74.63;;;20.20;99.90;;;;;;5095008;28;20480;-72
2022/08/24 07:16:34;;;;;;;123.90;73.70;;;20.40;99.90;;;;;;5076850;28;20050;-72
2022/08/24 07:19:01;;;;;;;119.63;70.32;;;20.50;99.90;;;;;;5076786;28;20492;-72
2022/08/24 07:21:27;;;;;;;115.32;68.47;;;20.60;99.90;;;;;;5094941;28;20109;-72
2022/08/24 07:23:58;;;;;;;115.43;67.18;;;20.70;99.90;;;;;;5095630;28;20062;-75
2022/08/24 07:26:26;;;;;;;114.28;62.40;;;20.80;99.90;;;;;;5094997;28;20040;-72
2022/08/24 07:29:03;;;;;;;106.65;62.75;;;20.90;99.90;;;;;;5076754;28;20125;-72
2022/08/24 07:31:29;;;;;;;107.13;63.95;;;21.00;99.90;;;;;;5094666;28;20052;-72
2022/08/24 07:33:55;;;;;;;105.72;61.85;;;21.20;99.90;;;;;;5094712;28;20044;-71
2022/08/24 07:36:21;;;;;;;106.13;63.60;;;21.20;99.90;;;;;;5043167;28;20052;-72
2022/08/24 07:38:47;;;;;;;99.60;62.27;;;21.40;99.90;;;;;;5059651;28;20051;-71
2022/08/24 07:41:13;;;;;;;93.40;62.13;;;21.50;99.90;;;;;;5076134;28;20290;-71
2022/08/24 07:43:40;;;;;;;95.60;58.30;;;21.60;99.90;;;;;;5059549;28;20138;-71
2022/08/24 07:46:06;;;;;;;97.13;58.17;;;21.70;99.90;;;;;;5094247;28;20059;-71
2022/08/24 07:48:33;;;;;;;96.35;58.67;;;21.80;99.90;;;;;;5076286;28;20048;-71
2022/08/24 07:51:19;;;;;;;97.15;58.30;;;21.90;99.90;;;;;;5094344;28;20051;-72
2022/08/24 07:53:45;;;;;;;95.80;58.67;;;22.00;99.90;;;;;;5094100;28;20329;-72
2022/08/24 07:56:12;;;;;;;93.50;58.00;;;22.00;99.90;;;;;;5059774;28;20067;-72
2022/08/24 07:58:38;;;;;;;94.80;58.90;;;22.10;99.90;;;;;;5094052;28;20036;-70
2022/08/24 08:01:06;;;;;;;96.47;56.38;;;22.20;99.90;;;;;;5076328;28;20056;-72
2022/08/24 08:03:32;;;;;;;89.07;57.35;;;22.30;99.90;;;;;;5094364;28;20097;-72
2022/08/24 08:06:08;;;;;;;87.25;56.05;;;22.40;99.90;;;;;;5076195;28;20048;-72
2022/08/24 08:08:37;;;;;;;89.18;56.33;;;22.40;99.90;;;;;;5094523;28;20095;-72
2022/08/24 08:11:03;;;;;;;81.13;52.42;;;22.50;99.90;;;;;;5093911;28;20044;-73
2022/08/24 08:13:30;;;;;;;79.47;51.10;;;22.60;99.90;;;;;;5093814;28;20129;-72
2022/08/24 08:15:58;;;;;;;79.93;49.72;;;22.70;99.90;;;;;;5059548;28;20143;-72
2022/08/24 08:18:24;;;;;;;73.60;47.83;;;22.80;99.90;;;;;;5075472;28;20126;-79
2022/08/24 08:20:51;;;;;;;77.78;48.67;;;22.90;99.90;;;;;;5075637;28;20391;-73
2022/08/24 08:26:01;;;;;;;75.60;46.42;;;23.00;99.90;;;;;;5094655;28;20134;-73
2022/08/24 08:28:31;;;;;;;74.88;46.10;;;23.10;99.90;;;;;;5093597;28;20070;-73
2022/08/24 08:31:01;;;;;;;65.85;43.55;;;23.10;99.90;;;;;;5093520;28;20059;-72
2022/08/24 08:33:26;;;;;;;66.55;40.83;;;23.20;99.90;;;;;;5093637;28;20089;-73
2022/08/24 08:36:07;;;;;;;64.07;39.13;;;23.30;99.90;;;;;;5093139;28;20055;-72
2022/08/24 08:38:33;;;;;;;67.97;40.53;;;23.50;99.90;;;;;;5075405;28;20130;-71
2022/08/24 08:41:36;;;;;;;68.18;40.00;;;23.60;99.90;;;;;;5093535;28;20044;-71
2022/08/24 08:44:12;;;;;;;61.22;38.00;;;23.70;99.90;;;;;;5076267;28;20104;-72
2022/08/24 08:47:13;;;;;;;62.75;35.58;;;23.80;99.90;;;;;;5094284;28;20052;-73
2022/08/24 08:49:54;;;;;;;50.30;30.02;;;23.90;99.90;;;;;;5045751;28;20452;-72
2022/08/24 08:52:56;;;;;;;52.53;31.95;;;24.00;99.90;;;;;;5093349;28;20056;-72
2022/08/24 08:55:25;;;;;;;48.33;30.38;;;24.10;99.90;;;;;;5059024;28;20056;-73
2022/08/24 08:58:10;;;;;;;51.60;30.20;;;24.20;99.90;;;;;;5075048;28;20433;-73
2022/08/24 09:01:05;;;;;;;48.60;27.55;;;24.20;99.90;;;;;;5093351;28;20403;-72
2022/08/24 09:03:52;;;;;;;44.57;25.97;;;24.30;99.90;;;;;;5074541;28;20086;-72
2022/08/24 09:06:30;;;;;;;38.22;24.20;;;24.40;99.90;;;;;;5059238;28;20290;-72
2022/08/24 09:09:22;;;;;;;44.13;26.23;;;24.50;99.90;;;;;;5092311;28;20079;-71
2022/08/24 09:12:26;;;;;;;47.00;29.63;;;24.60;99.90;;;;;;5063921;28;20112;-73
2022/08/24 09:14:58;;;;;;;35.25;22.20;;;24.70;99.90;;;;;;5092706;28;20488;-72
2022/08/24 09:17:48;;;;;;;46.22;25.30;;;24.90;99.90;;;;;;5074960;28;20051;-74
2022/08/24 09:20:46;;;;;;;41.10;23.65;;;25.00;99.90;;;;;;5074703;28;20098;-71
2022/08/24 09:23:21;;;;;;;36.10;20.63;;;25.00;99.90;;;;;;5076041;28;20075;-72
2022/08/24 09:25:57;;;;;;;31.77;21.25;;;25.20;99.90;;;;;;5092993;28;20089;-72
2022/08/24 09:28:43;;;;;;;38.40;23.07;;;25.30;99.90;;;;;;5058423;28;20131;-71
2022/08/24 09:31:27;;;;;;;39.38;25.17;;;25.40;99.90;;;;;;5058094;28;20143;-72
2022/08/24 09:34:07;;;;;;;45.85;28.13;;;25.40;99.90;;;;;;5092977;28;20048;-73
2022/08/24 09:36:52;;;;;;;43.17;23.38;;;25.40;99.90;;;;;;5092446;28;20058;-72
2022/08/24 09:39:54;;;;;;;40.30;24.60;;;25.40;99.90;;;;;;5092969;28;20441;-73
2022/08/24 09:42:31;;;;;;;39.00;24.88;;;25.50;99.90;;;;;;5058646;28;20151;-71
2022/08/24 09:45:36;;;;;;;44.72;25.70;;;25.60;99.90;;;;;;5092434;28;20457;-73
2022/08/24 09:48:25;;;;;;;49.10;26.65;;;25.70;99.90;;;;;;5075391;28;20365;-74
2022/08/24 09:51:05;;;;;;;35.00;18.98;;;25.70;99.90;;;;;;5092692;28;20453;-74
2022/08/24 09:54:02;;;;;;;32.90;18.33;;;25.80;99.90;;;;;;5093311;28;20040;-72
2022/08/24 09:56:55;;;;;;;34.05;20.10;;;25.90;99.90;;;;;;5092526;28;20414;-75
2022/08/24 09:59:32;;;;;;;32.00;16.92;;;25.90;99.90;;;;;;5074609;28;20036;-72
2022/08/24 10:02:36;;;;;;;43.60;19.02;;;25.90;99.90;;;;;;5074490;28;20055;-75
2022/08/24 10:05:21;;;;;;;35.03;17.98;;;;;;;;;;5074423;28;20054;-73
2022/08/24 10:08:11;;;;;;;33.17;17.95;;;26.30;99.90;;;;;;5074995;28;20094;-74
2022/08/24 10:11:07;;;;;;;37.15;19.85;;;26.30;99.90;;;;;;5058657;28;20130;-73
2022/08/24 10:13:41;;;;;;;27.70;15.88;;;26.30;99.90;;;;;;5092936;28;20048;-82
2022/08/24 10:16:16;;;;;;;30.20;16.55;;;26.30;99.90;;;;;;5093970;28;20048;-72
2022/08/24 10:19:04;;;;;;;22.15;14.20;;;26.50;99.90;;;;;;5096212;28;20112;-73
2022/08/24 10:21:30;;;;;;;29.52;17.65;;;26.60;99.90;;;;;;5062333;28;20052;-79
2022/08/24 10:24:21;;;;;;;35.38;18.50;;;26.70;99.90;;;;;;5096626;28;20055;-75
2022/08/24 10:27:20;;;;;;;29.35;17.58;;;26.70;99.90;;;;;;5082073;28;20056;-74
2022/08/24 10:30:07;;;;;;;29.38;17.05;;;26.70;99.90;;;;;;5078624;28;20464;-74
2022/08/24 10:32:52;;;;;;;25.80;15.27;;;26.70;99.90;;;;;;5096101;28;20040;-74
2022/08/24 10:35:26;;;;;;;18.60;9.15;;;26.70;99.90;;;;;;5061600;28;20088;-73
2022/08/24 10:41:15;;;;;;;19.00;9.60;;;27.00;99.90;;;;;;5061344;28;20063;-73
2022/08/24 10:44:07;;;;;;;17.20;10.23;;;27.10;99.90;;;;;;5077743;28;20051;-73
2022/08/24 10:47:08;;;;;;;16.95;10.93;;;27.20;99.90;;;;;;5060354;28;20463;-74
2022/08/24 10:49:37;;;;;;;22.45;11.75;;;27.10;99.90;;;;;;5078114;28;20059;-73
2022/08/24 10:52:21;;;;;;;21.50;9.70;;;27.00;99.90;;;;;;5095743;28;20040;-74
2022/08/24 10:54:47;;;;;;;18.00;9.90;;;27.10;99.90;;;;;;5095700;28;20044;-73
2022/08/24 10:57:30;;;;;;;16.65;8.32;;;27.10;99.90;;;;;;5095613;28;20044;-76
2022/08/24 11:00:14;;;;;;;21.30;9.68;;;27.20;99.90;;;;;;5078064;28;20080;-75
2022/08/24 11:02:43;;;;;;;16.88;9.27;;;27.20;99.90;;;;;;5078156;28;20044;-75
2022/08/24 11:05:15;;;;;;;14.07;7.90;;;27.10;99.90;;;;;;5078003;28;20070;-73
2022/08/24 11:07:57;;;;;;;15.93;7.43;;;27.10;99.90;;;;;;5095637;28;20048;-74
2022/08/24 11:10:30;;;;;;;17.55;8.65;;;27.30;99.90;;;;;;5076848;28;20044;-72
2022/08/24 11:13:17;;;;;;;10.70;7.18;;;27.30;99.90;;;;;;5077066;28;20495;-73
2022/08/24 11:15:55;;;;;;;14.48;7.82;;;27.50;99.90;;;;;;5077976;28;20116;-73
2022/08/24 11:18:21;;;;;;;13.25;7.00;;;27.60;99.90;;;;;;5077302;28;20071;-73
2022/08/24 11:20:48;;;;;;;;;;;27.60;99.90;;;;;;5078157;28;20431;-72
2022/08/24 11:23:19;;;;;;;11.60;6.40;;;27.70;99.90;;;;;;5095071;28;19927;-74
2022/08/24 11:26:20;;;;;;;12.15;6.78;;;27.70;99.90;;;;;;5095321;28;20048;-74
2022/08/24 11:28:52;;;;;;;10.95;5.68;;;27.60;99.90;;;;;;5075950;28;20106;-73
2022/08/24 11:31:33;;;;;;;12.23;6.28;;;27.60;99.90;;;;;;5094931;28;20048;-74
2022/08/24 11:34:03;;;;;;;16.83;7.38;;;27.60;99.90;;;;;;5077021;28;20055;-73
2022/08/24 11:36:33;;;;;;;12.25;5.35;;;27.70;99.90;;;;;;5076397;28;20407;-74
2022/08/24 11:39:26;;;;;;;10.00;5.45;;;27.70;99.90;;;;;;5060746;28;20076;-73
2022/08/24 11:42:26;;;;;;;14.45;5.82;;;27.90;99.90;;;;;;5083430;28;20120;-74
2022/08/24 11:45:10;;;;;;;15.77;6.85;;;27.90;99.90;;;;;;5071806;28;20052;-75
2022/08/24 11:47:39;;;;;;;10.52;6.10;;;28.00;99.90;;;;;;5094866;28;20138;-75
2022/08/24 11:50:30;;;;;;;10.60;5.28;;;28.10;99.90;;;;;;5094660;28;20044;-74
2022/08/24 11:53:30;;;;;;;13.18;6.53;;;28.20;99.90;;;;;;5094551;28;20044;-75
2022/08/24 11:56:11;;;;;;;15.38;6.13;;;28.30;99.80;;;;;;5094482;28;20043;-73
2022/08/24 11:59:16;;;;;;;12.73;5.85;;;28.40;98.60;;;;;;5076336;28;20040;-73
2022/08/24 12:01:56;;;;;;;12.05;5.57;;;28.30;98.00;;;;;;4994968;28;20055;-74
2022/08/24 12:04:40;;;;;;;14.32;5.50;;;28.20;99.00;;;;;;5095002;28;20039;-75
2022/08/24 12:07:17;;;;;;;10.88;4.68;;;28.30;99.60;;;;;;5094702;28;20040;-74
2022/08/24 12:10:09;;;;;;;8.23;3.97;;;28.40;99.30;;;;;;5094133;28;20047;-75
2022/08/24 12:12:45;;;;;;;10.55;5.20;;;28.50;98.10;;;;;;5082347;28;20048;-73
2022/08/24 12:15:14;;;;;;;13.95;5.43;;;28.50;97.10;;;;;;5059915;28;20052;-73
2022/08/24 12:18:21;;;;;;;9.98;4.90;;;28.50;98.40;;;;;;5075971;28;20052;-73
2022/08/24 12:20:49;;;;;;;9.00;5.00;;;28.60;97.50;;;;;;4991851;28;20100;-75
2022/08/24 12:23:41;;;;;;;11.13;4.88;;;28.50;97.50;;;;;;5073505;28;20094;-73
2022/08/24 12:26:45;;;;;;;9.15;5.53;;;28.50;96.90;;;;;;5093907;28;20047;-76
2022/08/24 12:29:35;;;;;;;9.10;4.80;;;28.60;96.40;;;;;;5075905;28;20036;-73
2022/08/24 12:32:10;;;;;;;8.45;5.35;;;28.50;95.70;;;;;;5075060;28;20056;-73
2022/08/24 12:34:47;;;;;;;11.65;4.90;;;28.40;95.00;;;;;;5059495;28;20044;-73
2022/08/24 12:37:44;;;;;;;9.93;4.93;;;28.50;95.90;;;;;;5094484;28;20048;-77
2022/08/24 12:40:32;;;;;;;10.02;5.03;;;28.60;96.20;;;;;;5075436;28;20048;-73
2022/08/24 12:43:22;;;;;;;15.38;5.28;;;28.70;95.80;;;;;;5094248;28;20040;-76
2022/08/24 12:45:48;;;;;;;10.75;5.85;;;28.80;96.60;;;;;;5047058;28;20509;-75
2022/08/24 12:48:17;;;;;;;7.50;4.40;;;28.90;96.80;;;;;;5075748;28;20392;-74
2022/08/24 12:51:02;;;;;;;7.90;4.53;;;29.10;96.60;;;;;;5093756;28;20395;-75
2022/08/24 12:54:06;;;;;;;13.80;5.10;;;29.10;94.40;;;;;;5094233;28;20047;-72
2022/08/24 12:56:53;;;;;;;9.32;5.00;;;29.10;94.20;;;;;;5042160;28;20048;-77
2022/08/24 12:59:24;;;;;;;8.10;4.68;;;29.20;94.90;;;;;;5094725;28;20449;-73
2022/08/24 13:02:03;;;;;;;10.38;5.10;;;29.30;95.40;;;;;;5075325;28;20040;-75
2022/08/24 13:05:09;;;;;;;10.57;5.15;;;29.00;93.30;;;;;;5075624;28;20084;-73
2022/08/24 13:07:42;;;;;;;11.27;4.80;;;29.20;94.70;;;;;;5043222;28;20066;-72